createdAt,value
2022-12-24T00:01:39.426Z,11.70
2022-12-24T00:04:08.318Z,11.80
2022-12-24T00:06:37.155Z,11.80
2022-12-24T00:09:05.705Z,11.90
2022-12-24T00:11:34.827Z,11.90
2022-12-24T00:14:03.531Z,11.70
2022-12-24T00:16:33.772Z,11.80
2022-12-24T00:19:02.212Z,11.60
2022-12-24T00:21:31.168Z,11.70
2022-12-24T00:23:59.434Z,11.70
2022-12-24T00:26:28.296Z,11.60
2022-12-24T00:28:57.380Z,11.60
2022-12-24T00:31:27.032Z,11.60
2022-12-24T00:33:57.181Z,11.70
2022-12-24T00:36:25.687Z,11.70
2022-12-24T00:38:54.473Z,11.60
2022-12-24T00:41:26.148Z,11.60
2022-12-24T00:43:57.964Z,11.40
2022-12-24T00:49:20.796Z,11.30
2022-12-24T00:51:49.359Z,11.20
2022-12-24T00:54:17.781Z,11.20
2022-12-24T00:56:46.318Z,11.00
2022-12-24T00:59:15.008Z,11.00
2022-12-24T01:01:43.492Z,11.10
2022-12-24T01:04:30.484Z,11.00
2022-12-24T01:07:00.420Z,10.80
2022-12-24T01:09:28.918Z,10.60
2022-12-24T01:11:57.355Z,10.50
2022-12-24T01:14:26.009Z,10.60
2022-12-24T01:16:54.631Z,10.20
2022-12-24T01:19:23.339Z,10.10
2022-12-24T01:21:53.382Z,10.40
2022-12-24T01:24:23.360Z,10.00
2022-12-24T01:26:51.901Z,9.60
2022-12-24T01:29:21.035Z,10.00
2022-12-24T01:31:49.883Z,10.20
2022-12-24T01:34:18.375Z,9.80
2022-12-24T01:36:47.262Z,10.10
2022-12-24T01:39:16.291Z,10.00
2022-12-24T01:42:38.227Z,10.20
2022-12-24T01:45:49.593Z,9.80
2022-12-24T01:48:29.404Z,9.70
2022-12-24T01:51:03.652Z,9.80
2022-12-24T01:53:35.342Z,10.20
2022-12-24T01:56:07.117Z,9.80
2022-12-24T01:58:41.260Z,9.70
2022-12-24T02:01:10.154Z,9.90
2022-12-24T02:03:39.391Z,9.90
2022-12-24T02:06:12.408Z,9.40
2022-12-24T02:08:41.412Z,9.70
2022-12-24T02:11:16.052Z,9.70
2022-12-24T02:13:56.326Z,9.70
2022-12-24T02:16:43.155Z,9.70
2022-12-24T02:19:46.448Z,10.20
2022-12-24T02:22:22.327Z,9.80
2022-12-24T02:25:40.288Z,9.80
2022-12-24T02:28:33.690Z,9.80
2022-12-24T02:31:11.748Z,10.20
2022-12-24T02:33:48.513Z,9.80
2022-12-24T02:36:30.154Z,9.80
2022-12-24T02:39:05.196Z,9.90
2022-12-24T02:41:51.151Z,9.80
2022-12-24T02:44:23.480Z,9.80
2022-12-24T02:46:56.058Z,9.70
2022-12-24T02:49:25.082Z,9.60
2022-12-24T02:51:53.487Z,9.70
2022-12-24T02:54:22.205Z,10.10
2022-12-24T02:57:15.025Z,9.70
2022-12-24T03:00:04.392Z,10.00
2022-12-24T03:03:07.670Z,9.90
2022-12-24T03:05:47.349Z,10.10
2022-12-24T03:08:30.383Z,9.80
2022-12-24T03:11:07.105Z,9.80
2022-12-24T03:13:35.892Z,9.90
2022-12-24T03:16:08.474Z,9.90
2022-12-24T03:18:43.513Z,9.90
2022-12-24T03:21:18.266Z,9.90
2022-12-24T03:23:46.841Z,10.00
2022-12-24T03:26:20.653Z,10.50
2022-12-24T03:28:50.977Z,10.00
2022-12-24T03:31:20.185Z,10.10
2022-12-24T03:33:51.271Z,10.00
2022-12-24T03:36:19.938Z,10.00
2022-12-24T03:38:48.271Z,9.60
2022-12-24T03:41:16.943Z,10.10
2022-12-24T03:43:45.330Z,10.70
2022-12-24T03:46:14.341Z,10.10
2022-12-24T03:48:42.805Z,9.90
2022-12-24T03:51:20.941Z,10.20
2022-12-24T03:53:49.795Z,9.90
2022-12-24T03:56:18.373Z,10.00
2022-12-24T03:58:47.520Z,10.00
2022-12-24T04:01:16.317Z,10.00
2022-12-24T04:03:45.576Z,9.90
2022-12-24T04:06:18.933Z,10.00
2022-12-24T04:08:47.574Z,10.10
2022-12-24T04:11:18.637Z,10.30
2022-12-24T04:13:47.541Z,10.30
2022-12-24T04:16:18.597Z,10.10
2022-12-24T04:18:47.597Z,10.00
2022-12-24T04:21:16.479Z,10.40
2022-12-24T04:23:48.531Z,10.60
2022-12-24T04:26:17.116Z,10.10
2022-12-24T04:28:45.975Z,10.10
2022-12-24T04:31:18.148Z,10.10
2022-12-24T04:33:47.407Z,10.10
2022-12-24T04:36:18.626Z,10.20
2022-12-24T04:38:50.468Z,10.40
2022-12-24T04:41:24.594Z,10.30
2022-12-24T04:43:54.833Z,10.10
2022-12-24T04:46:27.153Z,10.20
2022-12-24T04:48:56.658Z,10.10
2022-12-24T04:51:27.633Z,10.10
2022-12-24T04:53:58.953Z,10.10
2022-12-24T04:56:30.841Z,10.10
2022-12-24T04:59:01.393Z,10.10
2022-12-24T05:01:33.820Z,10.00
2022-12-24T05:04:03.093Z,10.00
2022-12-24T05:06:34.801Z,10.10
2022-12-24T05:09:05.658Z,10.10
2022-12-24T05:11:34.118Z,10.00
2022-12-24T05:14:03.280Z,10.00
2022-12-24T05:16:32.113Z,10.00
2022-12-24T05:19:00.569Z,9.80
2022-12-24T05:21:29.464Z,10.00
2022-12-24T05:24:15.678Z,9.90
2022-12-24T05:26:50.400Z,10.10
2022-12-24T05:29:19.696Z,9.90
2022-12-24T05:31:48.676Z,10.30
2022-12-24T05:34:18.651Z,9.90
2022-12-24T05:36:47.732Z,9.80
2022-12-24T05:39:18.491Z,10.10
2022-12-24T05:41:48.980Z,10.10
2022-12-24T05:44:18.112Z,9.90
2022-12-24T05:46:47.166Z,9.90
2022-12-24T05:49:16.185Z,10.00
2022-12-24T05:51:45.241Z,10.00
2022-12-24T05:54:13.729Z,10.10
2022-12-24T05:56:42.924Z,9.90
2022-12-24T05:59:13.402Z,9.90
2022-12-24T06:01:46.112Z,9.90
2022-12-24T06:04:15.367Z,10.00
2022-12-24T06:06:44.017Z,9.80
2022-12-24T06:09:13.358Z,10.00
2022-12-24T06:11:41.826Z,10.00
2022-12-24T06:14:10.491Z,10.40
2022-12-24T06:16:41.142Z,10.10
2022-12-24T06:19:09.638Z,10.10
2022-12-24T06:21:38.478Z,10.20
2022-12-24T06:24:07.792Z,10.20
2022-12-24T06:26:36.460Z,10.10
2022-12-24T06:29:05.063Z,9.90
2022-12-24T06:31:33.704Z,10.10
2022-12-24T06:34:04.350Z,10.40
2022-12-24T06:36:32.841Z,10.30
2022-12-24T06:39:02.071Z,10.00
2022-12-24T06:41:30.641Z,10.10
2022-12-24T06:43:59.529Z,10.40
2022-12-24T06:46:28.467Z,10.10
2022-12-24T06:48:57.419Z,9.90
2022-12-24T06:51:28.135Z,9.90
2022-12-24T06:53:56.584Z,9.90
2022-12-24T06:56:25.482Z,9.90
2022-12-24T06:58:53.859Z,10.00
2022-12-24T07:01:24.413Z,9.90
2022-12-24T07:03:53.204Z,9.90
2022-12-24T07:06:29.208Z,10.00
2022-12-24T07:08:57.882Z,10.30
2022-12-24T07:11:27.143Z,10.10
2022-12-24T07:13:55.560Z,10.60
2022-12-24T07:16:24.176Z,10.20
2022-12-24T07:18:52.707Z,10.10
2022-12-24T07:21:21.531Z,10.00
2022-12-24T07:23:51.423Z,10.00
2022-12-24T07:26:19.952Z,10.00
2022-12-24T07:28:49.374Z,10.10
2022-12-24T07:31:18.097Z,10.50
2022-12-24T07:33:46.581Z,10.10
2022-12-24T07:36:22.026Z,10.20
2022-12-24T07:38:52.725Z,9.80
2022-12-24T07:41:21.238Z,9.90
2022-12-24T07:43:49.718Z,9.80
2022-12-24T07:46:18.902Z,9.80
2022-12-24T07:48:47.722Z,9.80
2022-12-24T07:51:16.974Z,9.80
2022-12-24T07:53:47.990Z,9.80
2022-12-24T07:56:19.174Z,9.90
2022-12-24T07:58:47.714Z,9.90
2022-12-24T08:01:16.520Z,9.90
2022-12-24T08:03:45.580Z,9.90
2022-12-24T08:06:14.144Z,9.90
2022-12-24T08:08:42.482Z,10.00
2022-12-24T08:11:11.389Z,10.00
2022-12-24T08:13:42.063Z,9.90
2022-12-24T08:16:10.802Z,10.00
2022-12-24T08:18:39.967Z,10.00
2022-12-24T08:21:09.742Z,10.00
2022-12-24T08:23:39.122Z,10.20
2022-12-24T08:26:10.178Z,10.00
2022-12-24T08:28:40.295Z,10.00
2022-12-24T08:31:08.846Z,10.50
2022-12-24T08:33:37.926Z,10.10
2022-12-24T08:36:07.948Z,10.20
2022-12-24T08:38:36.313Z,10.10
2022-12-24T08:41:05.665Z,10.10
2022-12-24T08:43:33.962Z,10.00
2022-12-24T08:46:06.982Z,10.00
2022-12-24T08:48:35.640Z,9.90
2022-12-24T08:51:09.934Z,10.00
2022-12-24T08:53:38.689Z,10.10
2022-12-24T08:56:11.921Z,10.20
2022-12-24T09:03:28.069Z,10.40
2022-12-24T09:05:56.905Z,10.60
2022-12-24T09:08:25.328Z,10.70
2022-12-24T09:10:54.626Z,10.60
2022-12-24T09:13:23.803Z,10.70
2022-12-24T09:15:56.282Z,10.70
2022-12-24T09:18:27.093Z,11.00
2022-12-24T09:21:02.171Z,10.60
2022-12-24T09:23:31.766Z,10.70
2022-12-24T09:26:00.393Z,10.70
2022-12-24T09:28:30.316Z,10.60
2022-12-24T09:31:01.267Z,10.80
2022-12-24T09:33:35.336Z,10.90
2022-12-24T09:36:04.910Z,11.00
2022-12-24T09:38:35.128Z,10.90
2022-12-24T09:41:13.815Z,11.00
2022-12-24T09:43:52.295Z,10.90
2022-12-24T09:46:28.266Z,10.90
2022-12-24T09:49:05.060Z,11.10
2022-12-24T09:51:42.052Z,10.90
2022-12-24T09:54:20.203Z,10.80
2022-12-24T09:56:50.541Z,10.80
2022-12-24T09:59:24.521Z,10.90
2022-12-24T10:01:56.492Z,11.10
2022-12-24T10:04:33.887Z,10.90
2022-12-24T10:07:17.750Z,11.10
2022-12-24T10:09:58.039Z,10.70
2022-12-24T10:12:38.343Z,10.90
2022-12-24T10:15:22.059Z,10.90
2022-12-24T10:18:14.415Z,10.70
2022-12-24T10:20:53.750Z,10.70
2022-12-24T10:23:31.838Z,10.70
2022-12-24T10:26:14.660Z,10.90
2022-12-24T10:28:50.199Z,10.60
2022-12-24T10:31:25.316Z,10.80
2022-12-24T10:34:02.000Z,10.80
2022-12-24T10:36:33.723Z,10.90
2022-12-24T10:39:02.806Z,10.70
2022-12-24T10:41:33.897Z,10.50
2022-12-24T10:44:03.110Z,10.40
2022-12-24T10:46:40.166Z,10.50
2022-12-24T10:49:17.778Z,10.80
2022-12-24T10:51:58.175Z,10.40
2022-12-24T10:54:29.030Z,10.40
2022-12-24T10:57:00.485Z,10.50
2022-12-24T10:59:33.396Z,10.40
2022-12-24T11:02:03.917Z,10.40
2022-12-24T11:04:34.641Z,10.40
2022-12-24T11:07:07.699Z,10.50
2022-12-24T11:09:43.381Z,10.50
2022-12-24T11:12:24.801Z,10.40
2022-12-24T11:15:04.777Z,10.50
2022-12-24T11:17:35.054Z,10.40
2022-12-24T11:20:04.890Z,10.50
2022-12-24T11:22:35.620Z,10.60
2022-12-24T11:25:09.795Z,10.70
2022-12-24T11:27:46.164Z,10.80
2022-12-24T11:30:29.785Z,11.10
2022-12-24T11:33:22.692Z,11.20
2022-12-24T11:36:02.206Z,11.30
2022-12-24T11:38:35.895Z,11.30
2022-12-24T11:41:11.708Z,11.30
2022-12-24T11:43:46.430Z,11.40
2022-12-24T11:46:21.593Z,11.40
2022-12-24T11:49:08.265Z,11.50
2022-12-24T11:51:38.010Z,12.00
2022-12-24T11:54:17.744Z,11.70
2022-12-24T11:56:51.285Z,11.90
2022-12-24T11:59:26.669Z,12.20
2022-12-24T12:02:03.289Z,11.90
2022-12-24T12:04:38.143Z,11.90
2022-12-24T12:07:15.469Z,11.80
2022-12-24T12:09:52.257Z,11.80
2022-12-24T12:12:25.921Z,11.70
2022-12-24T12:15:01.781Z,11.90
2022-12-24T12:17:36.117Z,11.60
2022-12-24T12:20:15.391Z,11.30
2022-12-24T12:22:54.922Z,11.60
2022-12-24T12:25:34.089Z,11.60
2022-12-24T12:28:08.820Z,11.60
2022-12-24T12:30:41.920Z,11.40
2022-12-24T12:33:21.433Z,11.90
2022-12-24T12:35:52.148Z,11.70
2022-12-24T12:38:26.192Z,11.80
2022-12-24T12:41:25.064Z,11.90
2022-12-24T12:44:43.290Z,11.80
2022-12-24T12:48:01.310Z,11.90
2022-12-24T12:50:38.261Z,12.10
2022-12-24T12:53:44.288Z,12.00
2022-12-24T12:56:33.477Z,12.10
2022-12-24T12:59:29.861Z,12.20
2022-12-24T13:02:12.146Z,12.30
2022-12-24T13:05:22.356Z,12.50
2022-12-24T13:08:18.029Z,12.50
2022-12-24T13:11:40.513Z,12.50
2022-12-24T13:14:59.579Z,12.50
2022-12-24T13:17:56.047Z,12.40
2022-12-24T13:20:30.784Z,12.20
2022-12-24T13:23:02.887Z,12.20
2022-12-24T13:25:40.108Z,12.10
2022-12-24T13:28:35.712Z,12.10
2022-12-24T13:31:28.141Z,12.00
2022-12-24T13:34:01.601Z,12.00
2022-12-24T13:37:06.585Z,12.00
2022-12-24T13:40:18.671Z,11.90
2022-12-24T13:43:12.466Z,11.90
2022-12-24T13:45:50.049Z,11.60
2022-12-24T13:48:34.449Z,11.80
2022-12-24T13:51:26.458Z,11.70
2022-12-24T13:54:01.364Z,11.60
2022-12-24T13:56:33.311Z,11.70
2022-12-24T13:59:23.646Z,11.80
2022-12-24T14:01:54.041Z,11.70
2022-12-24T14:04:30.401Z,11.70
2022-12-24T14:07:01.217Z,11.70
2022-12-24T14:09:32.713Z,12.00
2022-12-24T14:12:48.257Z,11.80
2022-12-24T14:16:04.135Z,11.80
2022-12-24T14:18:40.853Z,11.80
2022-12-24T14:21:19.084Z,11.80
2022-12-24T14:23:57.141Z,11.80
2022-12-24T14:26:31.473Z,11.70
2022-12-24T14:29:08.143Z,11.80
2022-12-24T14:31:36.727Z,11.70
2022-12-24T14:34:11.574Z,11.80
2022-12-24T14:36:44.381Z,11.60
2022-12-24T14:39:26.879Z,11.60
2022-12-24T14:42:27.125Z,11.60
2022-12-24T14:45:08.846Z,11.60
2022-12-24T14:47:49.481Z,11.50
2022-12-24T14:50:46.860Z,11.40
2022-12-24T14:53:29.988Z,11.40
2022-12-24T14:55:58.491Z,11.30
2022-12-24T14:58:31.619Z,11.20
2022-12-24T15:01:03.356Z,11.20
2022-12-24T15:03:34.534Z,11.30
2022-12-24T15:06:11.185Z,11.30
2022-12-24T15:08:45.699Z,11.10
2022-12-24T15:11:19.521Z,11.00
2022-12-24T15:13:53.349Z,11.10
2022-12-24T15:16:27.330Z,10.90
2022-12-24T15:19:00.095Z,10.80
2022-12-24T15:21:35.027Z,10.70
2022-12-24T15:24:03.587Z,10.80
2022-12-24T15:26:36.659Z,10.70
2022-12-24T15:29:24.399Z,10.60
2022-12-24T15:31:57.993Z,10.90
2022-12-24T15:34:31.184Z,10.70
2022-12-24T15:37:08.916Z,10.70
2022-12-24T15:39:39.610Z,10.60
2022-12-24T15:42:18.124Z,10.60
2022-12-24T15:45:00.004Z,10.60
2022-12-24T15:47:38.030Z,10.50
2022-12-24T15:50:30.870Z,10.50
2022-12-24T15:53:23.187Z,10.50
2022-12-24T15:56:14.467Z,10.50
2022-12-24T15:59:07.512Z,10.50
2022-12-24T16:01:45.813Z,10.50
2022-12-24T16:04:46.358Z,10.50
2022-12-24T16:07:55.299Z,10.40
2022-12-24T16:10:47.888Z,10.40
2022-12-24T16:13:30.631Z,10.50
2022-12-24T16:16:13.992Z,10.40
2022-12-24T16:19:00.282Z,10.40
2022-12-24T16:21:40.682Z,10.50
2022-12-24T16:24:21.688Z,10.50
2022-12-24T16:29:41.930Z,10.40
2022-12-24T16:32:36.750Z,10.40
2022-12-24T16:35:15.305Z,10.40
2022-12-24T16:37:46.609Z,10.40
2022-12-24T16:40:27.315Z,10.60
2022-12-24T16:43:16.321Z,10.30
2022-12-24T16:45:50.468Z,10.30
2022-12-24T16:48:30.556Z,10.40
2022-12-24T16:51:03.991Z,10.50
2022-12-24T16:53:37.882Z,10.60
2022-12-24T16:56:13.954Z,10.40
2022-12-24T16:58:47.308Z,10.40
2022-12-24T17:01:18.392Z,10.40
2022-12-24T17:03:49.137Z,10.80
2022-12-24T17:06:21.700Z,10.50
2022-12-24T17:08:54.760Z,10.40
2022-12-24T17:11:27.727Z,10.40
2022-12-24T17:14:07.859Z,10.30
2022-12-24T17:16:38.331Z,10.50
2022-12-24T17:19:12.914Z,10.40
2022-12-24T17:21:46.211Z,10.40
2022-12-24T17:24:20.503Z,10.50
2022-12-24T17:26:51.954Z,10.50
2022-12-24T17:29:23.187Z,10.50
2022-12-24T17:31:53.226Z,10.40
2022-12-24T17:34:25.697Z,10.40
2022-12-24T17:36:56.685Z,10.30
2022-12-24T17:39:28.248Z,10.30
2022-12-24T17:42:00.179Z,10.20
2022-12-24T17:44:33.412Z,10.20
2022-12-24T17:47:09.697Z,10.10
2022-12-24T17:49:38.975Z,10.40
2022-12-24T17:52:10.928Z,10.20
2022-12-24T17:54:52.085Z,10.30
2022-12-24T17:57:22.933Z,10.30
2022-12-24T17:59:58.892Z,10.10
2022-12-24T18:02:31.238Z,10.20
2022-12-24T18:05:03.301Z,10.20
2022-12-24T18:07:34.888Z,10.20
2022-12-24T18:10:05.116Z,10.00
2022-12-24T18:12:37.836Z,10.30
2022-12-24T18:15:12.343Z,9.90
2022-12-24T18:17:43.367Z,9.90
2022-12-24T18:20:17.378Z,10.10
2022-12-24T18:22:48.723Z,9.90
2022-12-24T18:25:20.364Z,9.90
2022-12-24T18:27:51.214Z,9.90
2022-12-24T18:30:27.730Z,9.90
2022-12-24T18:32:59.778Z,9.90
2022-12-24T18:35:30.165Z,10.20
2022-12-24T18:38:04.151Z,9.80
2022-12-24T18:40:35.098Z,9.80
2022-12-24T18:43:05.108Z,9.80
2022-12-24T18:45:41.427Z,9.80
2022-12-24T18:48:15.687Z,9.90
2022-12-24T18:50:55.778Z,9.80
2022-12-24T18:53:26.162Z,9.70
2022-12-24T18:56:06.810Z,9.70
2022-12-24T18:58:38.699Z,9.70
2022-12-24T19:01:17.776Z,9.70
2022-12-24T19:03:49.909Z,9.70
2022-12-24T19:06:22.684Z,9.60
2022-12-24T19:08:58.267Z,9.40
2022-12-24T19:11:33.542Z,9.60
2022-12-24T19:14:07.393Z,9.60
2022-12-24T19:16:42.895Z,9.70
2022-12-24T19:19:14.246Z,9.60
2022-12-24T19:21:45.655Z,9.50
2022-12-24T19:24:16.479Z,9.50
2022-12-24T19:26:46.500Z,9.50
2022-12-24T19:29:18.699Z,9.50
2022-12-24T19:31:54.324Z,9.50
2022-12-24T19:34:24.254Z,9.50
2022-12-24T19:36:58.210Z,9.50
2022-12-24T19:39:32.403Z,9.50
2022-12-24T19:42:03.299Z,9.50
2022-12-24T19:44:36.180Z,9.50
2022-12-24T19:47:12.280Z,9.50
2022-12-24T19:49:42.953Z,9.50
2022-12-24T19:52:13.699Z,9.40
2022-12-24T19:54:44.458Z,9.40
2022-12-24T19:57:15.155Z,9.40
2022-12-24T19:59:46.660Z,9.40
2022-12-24T20:02:18.737Z,9.50
2022-12-24T20:04:49.488Z,9.50
2022-12-24T20:07:21.947Z,9.70
2022-12-24T20:09:51.791Z,9.40
2022-12-24T20:12:20.445Z,9.40
2022-12-24T20:14:50.918Z,9.50
2022-12-24T20:17:22.558Z,9.50
2022-12-24T20:19:52.598Z,9.40
2022-12-24T20:22:24.692Z,9.50
2022-12-24T20:25:00.752Z,9.50
2022-12-24T20:27:31.698Z,9.50
2022-12-24T20:30:01.229Z,9.40
2022-12-24T20:32:32.850Z,9.50
2022-12-24T20:35:02.734Z,9.40
2022-12-24T20:37:32.113Z,9.40
2022-12-24T20:40:02.390Z,9.40
2022-12-24T20:42:34.067Z,9.30
2022-12-24T20:45:05.527Z,9.30
2022-12-24T20:47:38.330Z,9.60
2022-12-24T20:50:11.070Z,9.40
2022-12-24T20:52:41.391Z,9.40
2022-12-24T20:55:10.875Z,9.40
2022-12-24T20:57:42.197Z,9.30
2022-12-24T21:00:13.132Z,9.30
2022-12-24T21:02:45.696Z,9.30
2022-12-24T21:05:17.169Z,9.30
2022-12-24T21:07:47.019Z,9.30
2022-12-24T21:10:18.290Z,9.40
2022-12-24T21:12:57.155Z,9.30
2022-12-24T21:15:32.140Z,9.20
2022-12-24T21:18:10.646Z,9.50
2022-12-24T21:20:44.022Z,9.10
2022-12-24T21:23:14.502Z,9.30
2022-12-24T21:25:43.454Z,9.20
2022-12-24T21:28:12.689Z,9.00
2022-12-24T21:30:43.660Z,9.20
2022-12-24T21:33:14.852Z,9.20
2022-12-24T21:35:48.289Z,9.30
2022-12-24T21:38:19.074Z,9.60
2022-12-24T21:40:58.054Z,9.30
2022-12-24T21:43:28.600Z,9.00
2022-12-24T21:45:58.115Z,9.30
2022-12-24T21:48:45.838Z,9.30
2022-12-24T21:51:15.198Z,9.20
2022-12-24T21:54:10.676Z,9.20
2022-12-24T21:56:53.916Z,9.20
2022-12-24T21:59:26.843Z,9.10
2022-12-24T22:01:57.997Z,9.20
2022-12-24T22:04:29.115Z,9.10
2022-12-24T22:07:15.263Z,9.30
2022-12-24T22:10:01.937Z,9.10
2022-12-24T22:12:35.398Z,9.30
2022-12-24T22:15:08.883Z,9.00
2022-12-24T22:17:39.763Z,9.00
2022-12-24T22:20:12.924Z,9.00
2022-12-24T22:22:43.369Z,9.00
2022-12-24T22:25:12.477Z,8.90
2022-12-24T22:27:42.721Z,9.10
2022-12-24T22:30:14.255Z,9.30
2022-12-24T22:32:44.242Z,9.10
2022-12-24T22:35:16.541Z,9.20
2022-12-24T22:37:46.793Z,9.30
2022-12-24T22:40:15.791Z,9.40
2022-12-24T22:42:45.583Z,8.80
2022-12-24T22:45:21.811Z,9.20
2022-12-24T22:47:51.839Z,9.20
2022-12-24T22:50:26.130Z,9.20
2022-12-24T22:52:56.545Z,9.30
2022-12-24T22:55:28.544Z,9.20
2022-12-24T22:57:57.644Z,9.40
2022-12-24T23:00:43.685Z,9.30
2022-12-24T23:03:13.982Z,9.10
2022-12-24T23:05:45.559Z,9.40
2022-12-24T23:08:15.736Z,9.10
2022-12-24T23:10:44.315Z,9.10
2022-12-24T23:13:32.947Z,9.10
2022-12-24T23:16:04.939Z,9.00
2022-12-24T23:18:34.994Z,9.00
2022-12-24T23:21:09.531Z,8.90
2022-12-24T23:23:39.855Z,9.00
2022-12-24T23:26:12.305Z,8.90
2022-12-24T23:28:42.688Z,9.00
2022-12-24T23:31:12.473Z,8.90
2022-12-24T23:33:42.412Z,8.90
2022-12-24T23:36:14.110Z,8.80
2022-12-24T23:38:43.034Z,8.80
2022-12-24T23:41:12.732Z,9.10
2022-12-24T23:43:41.877Z,8.80
2022-12-24T23:46:16.038Z,9.20
2022-12-24T23:48:46.084Z,8.60
2022-12-24T23:51:23.128Z,8.80
2022-12-24T23:53:53.601Z,8.70
2022-12-24T23:56:24.415Z,8.60
2022-12-24T23:58:54.006Z,8.80
